Latest Weather Observations for Ernabella/Pukatja

IDD60801

Issued at 9:31 am CST Sunday 18 April 2021 (issued every 10 minutes, with the page automatically refreshed every 10 minutes)

About weather observations | Map of weather stations | Latest weather observations for NT | Other Formats
Station Details ID: 016097 Name: PUKATJA Lat: -26.26 Lon: 132.18 Height: 703.2 m
Data from the previous 72 hours. | See also: Recent months at Ernabella/Pukatja
Date/Time
CST
Temp
°C
App
Temp
°C
Dew
Point
°C
Rel
Hum
%
Delta-T
°C
Wind Press
QNH
hPa
Press
MSL
hPa
Rain since
9am
mm
Dir  Spd
km/h
Gust
km/h
Spd
kts
Gust
kts
18/09:30am 17.1 10.7 3.1 39 6.6 E 26 35 14 19 1026.5 1023.4 0.0
18/09:00am 16.4 10.7 2.8 40 6.4 E 22 32 12 17 1026.5 1023.4 0.0
18/08:30am 14.8 9.6 2.7 44 5.6 ESE 19 24 10 13 1026.4 1023.3 0.0
18/08:00am 13.7 9.0 2.9 48 5.0 ESE 17 28 9 15 1026.2 1023.1 0.0
18/07:30am 9.5 7.2 2.8 63 3.0 NNE 4 7 2 4 1025.9 1022.8 0.0
18/07:00am 7.4 4.6 2.1 69 2.3 N 6 7 3 4 1025.8 1022.7 0.0
18/06:30am 8.8 6.0 2.2 63 2.9 NNE 6 9 3 5 1025.7 1022.6 0.0
18/06:00am 11.1 7.7 1.9 53 4.1 E 9 13 5 7 1025.8 1022.7 0.0
18/05:30am 12.8 7.9 1.8 47 4.9 E 17 26 9 14 1025.3 1022.2 0.0
18/05:00am 13.6 8.1 1.6 44 5.4 ESE 20 28 11 15 1025.2 1022.1 0.0
18/04:30am 14.3 8.4 1.6 42 5.7 ESE 22 33 12 18 1025.1 1022.0 0.0
18/04:00am 14.2 8.6 1.5 42 5.7 ESE 20 28 11 15 1025.1 1022.0 0.0
18/03:30am 14.0 8.4 1.3 42 5.7 ESE 20 28 11 15 1025.3 1022.2 0.0
18/03:00am 14.3 8.8 1.6 42 5.7 ESE 20 26 11 14 1025.6 1022.5 0.0
18/02:30am 14.3 9.3 1.6 42 5.7 ESE 17 24 9 13 1025.7 1022.6 0.0
18/02:00am 15.1 9.6 1.6 40 6.2 ESE 20 28 11 15 1025.8 1022.7 0.0
18/01:30am 15.0 9.7 1.9 41 6.0 ESE 19 28 10 15 1025.9 1022.8 0.0
18/01:00am 15.2 10.3 2.1 41 6.0 ESE 17 24 9 13 1026.2 1023.1 0.0
18/12:30am 14.5 9.9 1.8 42 5.7 SE 15 20 8 11 1026.3 1023.2 0.0
18/12:00am 14.9 10.3 1.8 41 5.9 SE 15 24 8 13 1026.4 1023.3 0.0
 
Date/Time
CST
Temp
°C
App
Temp
°C
Dew
Point
°C
Rel
Hum
%
Delta-T
°C
Wind Press
QNH
hPa
Press
MSL
hPa
Rain since
9am
mm
Dir  Spd
km/h
Gust
km/h
Spd
kts
Gust
kts
17/11:30pm 14.9 10.7 1.8 41 5.9 SE 13 17 7 9 1026.5 1023.4 0.0
17/11:00pm 15.6 11.1 2.1 40 6.2 SE 15 24 8 13 1026.6 1023.5 0.0
17/10:30pm 15.6 11.1 2.1 40 6.2 SE 15 20 8 11 1026.9 1023.8 0.0
17/10:00pm 16.0 11.5 2.1 39 6.4 SE 15 22 8 12 1027.1 1024.0 0.0
17/09:30pm 16.5 11.6 1.8 37 6.8 SE 17 24 9 13 1026.9 1023.8 0.0
17/09:00pm 17.1 11.8 1.9 36 7.0 ESE 19 28 10 15 1026.9 1023.8 0.0
17/08:30pm 17.4 12.1 1.8 35 7.2 ESE 19 26 10 14 1026.9 1023.8 0.0
17/08:00pm 17.1 12.6 1.9 36 7.1 ESE 15 19 8 10 1027.0 1023.9 0.0
17/07:30pm 17.6 12.7 2.0 35 7.3 ESE 17 20 9 11 1026.7 1023.6 0.0
17/07:00pm 17.9 13.0 1.8 34 7.5 ESE 17 22 9 12 1026.5 1023.4 0.0
17/06:30pm 18.8 13.3 1.8 32 8.0 ESE 20 28 11 15 1026.2 1023.1 0.0
17/06:00pm 19.6 14.1 1.6 30 8.5 ESE 20 32 11 17 1025.7 1022.6 0.0
17/05:30pm 20.4 15.1 1.8 29 8.8 ESE 19 28 10 15 1025.5 1022.4 0.0
17/05:00pm 20.8 14.9 1.6 28 9.1 ESE 22 30 12 16 1025.3 1022.2 0.0
17/04:30pm 21.1 14.9 2.4 29 9.0 ESE 24 33 13 18 1025.1 1022.0 0.0
17/04:00pm 21.2 15.3 2.0 28 9.2 ESE 22 35 12 19 1025.0 1021.9 0.0
17/03:30pm 22.0 16.4 3.2 29 9.3 SE 22 32 12 17 1025.3 1022.2 0.0
17/03:00pm 21.8 16.1 3.0 29 9.2 SE 22 37 12 20 1025.4 1022.3 0.0
17/02:30pm 21.4 15.3 2.6 29 9.1 ESE 24 37 13 20 1025.5 1022.4 0.0
17/02:00pm 20.6 13.9 1.5 28 9.1 SE 26 35 14 19 1025.8 1022.7 0.0
17/01:30pm 20.6 14.4 2.0 29 8.9 E 24 39 13 21 1026.3 1023.2 0.0
17/01:00pm 20.1 14.0 2.5 31 8.5 ESE 24 39 13 21 1026.7 1023.6 0.0
17/12:30pm 20.2 14.1 3.0 32 8.3 E 24 33 13 18 1027.1 1024.0 0.0
17/12:00pm 20.2 13.8 3.4 33 8.2 E 26 39 14 21 1027.8 1024.7 0.0
17/11:30am 19.2 13.4 4.2 37 7.4 E 24 32 13 17 1028.6 1025.5 0.0
17/11:00am 18.5 12.2 3.9 38 7.2 ESE 26 35 14 19 1028.9 1025.9 0.0
17/10:30am 18.1 11.4 3.9 39 6.9 E 28 41 15 22 1029.3 1026.2 0.0
17/10:00am 17.3 10.5 2.9 38 6.9 E 28 39 15 21 1029.3 1026.2 0.0
17/09:30am 16.8 10.5 3.5 41 6.3 E 26 35 14 19 1029.1 1026.0 0.0
17/09:00am 16.5 10.7 4.5 45 5.8 E 24 32 13 17 1028.8 1025.8 0.0
17/08:30am 15.4 10.1 5.0 50 5.1 E 22 32 12 17 1028.4 1025.3 0.0
17/08:00am 14.1 9.9 5.5 56 4.2 ESE 17 22 9 12 1028.0 1024.9 0.0
17/07:30am 12.9 8.6 5.1 59 3.7 ESE 17 22 9 12 1027.8 1024.7 0.0
17/07:00am 12.3 7.0 4.8 60 3.6 ESE 22 33 12 18 1027.2 1024.1 0.0
17/06:30am 12.5 7.7 4.5 58 3.8 ESE 19 24 10 13 1027.0 1023.9 0.0
17/06:00am 13.0 7.8 3.7 53 4.3 ESE 20 28 11 15 1027.2 1024.1 0.0
17/05:30am 12.6 7.5 3.3 53 4.3 ESE 19 32 10 17 1027.1 1024.0 0.0
17/05:00am 12.4 8.1 3.4 54 4.2 SE 15 22 8 12 1027.2 1024.1 0.0
17/04:30am 12.7 8.0 3.4 53 4.3 SE 17 24 9 13 1027.1 1024.0 0.0
17/04:00am 12.8 8.5 3.2 52 4.4 SE 15 22 8 12 1027.0 1023.9 0.0
17/03:30am 12.5 8.1 2.9 52 4.4 SE 15 24 8 13 1027.0 1023.9 0.0
17/03:00am 13.0 8.7 3.1 51 4.5 SE 15 20 8 11 1027.3 1024.2 0.0
17/02:30am 13.0 8.6 2.8 50 4.7 ESE 15 26 8 14 1027.3 1024.2 0.0
17/02:00am 12.9 8.9 3.0 51 4.6 ESE 13 20 7 11 1027.1 1024.0 0.0
17/01:30am 12.9 8.3 3.6 53 4.3 ESE 17 26 9 14 1027.0 1023.9 0.0
17/01:00am 13.3 8.7 3.7 52 4.5 ESE 17 20 9 11 1027.0 1023.9 0.0
17/12:30am 13.8 9.2 3.6 50 4.8 ESE 17 30 9 16 1027.1 1024.0 0.0
17/12:00am 13.8 9.6 3.6 50 4.8 SE 15 26 8 14 1027.3 1024.2 0.0
 
Date/Time
CST
Temp
°C
App
Temp
°C
Dew
Point
°C
Rel
Hum
%
Delta-T
°C
Wind Press
QNH
hPa
Press
MSL
hPa
Rain since
9am
mm
Dir  Spd
km/h
Gust
km/h
Spd
kts
Gust
kts
16/11:30pm 14.4 10.5 3.5 48 5.1 SE 13 24 7 13 1027.6 1024.5 0.0
16/11:00pm 14.4 10.9 3.5 48 5.1 ESE 11 15 6 8 1027.8 1024.7 0.0
16/10:30pm 14.5 11.4 3.6 48 5.1 SE 9 17 5 9 1027.6 1024.5 0.0
16/10:00pm 15.1 11.2 3.6 46 5.5 SE 13 17 7 9 1027.3 1024.2 0.0
16/09:30pm 16.0 11.4 3.8 44 5.8 SE 17 24 9 13 1027.1 1024.0 0.0
16/09:00pm 16.2 11.6 3.6 43 6.0 SE 17 24 9 13 1026.9 1023.8 0.0
16/08:30pm 16.3 12.3 3.0 41 6.3 SSE 13 20 7 11 1026.7 1023.6 0.0
16/08:00pm 16.9 12.1 2.5 38 6.8 SSE 17 20 9 11 1026.5 1023.4 0.0
16/07:30pm 17.1 12.6 2.3 37 6.9 SSE 15 19 8 10 1026.1 1022.9 0.0
16/07:00pm 17.5 13.0 1.9 35 7.3 SSE 15 22 8 12 1025.6 1022.5 0.0
16/06:30pm 18.3 13.4 1.8 33 7.7 SE 17 24 9 13 1025.4 1022.3 0.0
16/06:00pm 19.2 14.3 1.7 31 8.2 SSE 17 28 9 15 1025.0 1021.9 0.0
16/05:30pm 19.9 13.9 0.9 28 8.8 SE 22 32 12 17 1024.9 1021.8 0.0
16/05:00pm 20.8 15.5 1.6 28 9.1 SSE 19 26 10 14 1024.6 1021.4 0.0
16/04:30pm 20.9 14.9 1.2 27 9.3 SSE 22 30 12 16 1024.3 1021.2 0.0
16/04:00pm 21.4 16.0 2.2 28 9.3 S 20 30 11 16 1024.2 1021.1 0.0
16/03:30pm 21.2 16.8 2.5 29 9.1 SE 15 30 8 16 1024.2 1021.1 0.0
16/03:00pm 20.4 15.0 2.3 30 8.7 SE 20 32 11 17 1024.3 1021.2 0.0
16/02:30pm 20.7 15.7 3.4 32 8.5 SSE 19 35 10 19 1024.2 1021.1 0.0
16/02:00pm 20.1 15.0 3.3 33 8.2 SSE 19 30 10 16 1024.4 1021.3 0.0
16/01:30pm 20.3 15.8 4.4 35 7.9 S 17 28 9 15 1024.7 1021.5 0.0
16/01:00pm 20.3 15.7 3.9 34 8.1 SSE 17 30 9 16 1025.2 1022.1 0.0
16/12:30pm 19.0 14.0 4.4 38 7.2 ESE 20 32 11 17 1025.7 1022.6 0.0
16/12:00pm 18.7 13.9 4.5 39 7.0 SE 19 32 10 17 1026.3 1023.2 0.0
16/11:30am 18.5 13.9 5.4 42 6.6 SE 19 32 10 17 1026.8 1023.7 0.0
16/11:00am 17.5 12.6 5.1 44 6.2 SE 20 35 11 19 1027.1 1024.0 0.0
16/10:30am 17.1 11.8 5.1 45 5.9 ESE 22 35 12 19 1027.3 1024.2 0.0
16/10:00am 16.5 11.8 6.1 50 5.3 ESE 20 35 11 19 1027.4 1024.4 0.0
16/09:30am 15.8 12.8 7.6 58 4.2 SE 13 19 7 10 1027.3 1024.2 0.0
16/09:00am 14.8 11.0 7.4 61 3.8 SSE 17 26 9 14 1027.1 1024.0 2.4
16/08:30am 14.3 11.7 7.8 65 3.3 SE 11 17 6 9 1026.6 1023.5 2.4
16/08:00am 13.1 10.6 8.0 71 2.6 ESE 11 17 6 9 1026.3 1023.2 2.4
16/07:30am 11.8 8.9 8.1 78 1.9 SE 13 15 7 8 1025.8 1022.7 2.4
16/07:00am 9.1 7.5 7.9 92 0.6 ESE 6 9 3 5 1025.4 1022.3 2.4
16/06:30am 9.4 8.1 7.7 89 0.8 SE 4 11 2 6 1025.2 1022.1 2.4
16/06:00am 9.9 8.0 7.7 86 1.1 E 7 9 4 5 1025.0 1021.9 2.4
16/05:30am 10.9 9.4 8.3 84 1.3 SE 6 9 3 5 1024.6 1021.4 2.2
16/05:00am 10.5 9.7 8.3 86 1.1 ESE 2 7 1 4 1024.1 1021.0 2.2
16/04:30am 12.1 10.5 7.8 75 2.2 SE 6 7 3 4 1024.0 1020.9 2.2
16/04:00am 13.3 10.7 7.7 69 2.9 SSE 11 15 6 8 1023.8 1020.7 2.2
16/03:30am 13.9 10.9 7.9 67 3.1 SE 13 20 7 11 1023.8 1020.7 2.2
16/03:00am 14.2 11.7 8.2 67 3.1 SSE 11 19 6 10 1023.6 1020.5 2.2
16/02:30am 14.3 11.8 8.3 67 3.1 SE 11 17 6 9 1023.8 1020.7 2.2
16/02:00am 14.4 12.0 8.8 69 2.9 SE 11 15 6 8 1023.8 1020.7 2.2
16/01:30am 14.3 14.4 10.1 76 2.3 CALM 0 0 0 0 1024.0 1020.9 2.2
16/01:00am 14.4 14.0 9.6 73 2.6 ESE 2 6 1 3 1024.2 1021.1 2.2
16/12:30am 14.4 12.6 9.6 73 2.6 SE 9 13 5 7 1023.7 1020.6 2.2
16/12:00am 14.5 12.7 9.3 71 2.8 SSE 9 11 5 6 1024.3 1021.2 2.2
 
Date/Time
CST
Temp
°C
App
Temp
°C
Dew
Point
°C
Rel
Hum
%
Delta-T
°C
Wind Press
QNH
hPa
Press
MSL
hPa
Rain since
9am
mm
Dir  Spd
km/h
Gust
km/h
Spd
kts
Gust
kts
15/11:30pm 14.5 12.0 9.7 73 2.6 S 13 20 7 11 1024.2 1021.1 2.2
15/11:00pm 14.5 12.8 9.9 74 2.5 ESE 9 13 5 7 1024.0 1020.9 2.2
15/10:30pm 14.8 13.5 10.0 73 2.6 SE 7 15 4 8 1024.1 1021.0 2.2
15/10:00pm 14.7 13.2 10.5 76 2.3 SSE 9 13 5 7 1023.9 1020.8 2.2
15/09:30pm 14.8 13.4 11.0 78 2.1 S 9 20 5 11 1024.3 1021.2 2.2
15/09:00pm 14.7 14.0 12.0 84 1.5 SSE 7 11 4 6 1024.2 1021.1 2.2
15/08:30pm 14.6 15.4 12.6 88 1.1 CALM 0 0 0 0 1024.2 1021.1 2.2
15/08:00pm 14.5 13.8 12.0 85 1.4 ESE 7 15 4 8 1024.2 1021.1 2.2
15/07:30pm 14.6 14.2 12.3 86 1.3 E 6 7 3 4 1023.7 1020.6 2.2
15/07:00pm 14.5 14.0 12.2 86 1.3 NE 6 9 3 5 1023.2 1020.0 2.2
15/06:30pm 14.9 15.0 11.5 80 1.9 ENE 2 7 1 4 1023.4 1020.2 2.2
15/06:00pm 15.0 14.4 11.8 81 1.8 E 6 9 3 5 1023.4 1020.2 2.2
15/05:30pm 15.2 14.4 11.8 80 1.9 E 7 11 4 6 1022.8 1019.7 2.2
15/05:00pm 15.3 14.2 11.9 80 1.9 ESE 9 13 5 7 1022.7 1019.6 2.2
15/04:30pm 15.1 14.0 12.1 82 1.7 SE 9 15 5 8 1023.0 1019.8 2.2
15/04:00pm 15.0 14.1 12.5 85 1.4 ESE 9 13 5 7 1022.6 1019.5 2.2
15/03:30pm 14.5 13.6 12.7 89 1.0 NE 9 11 5 6 1022.2 1019.0 2.2
15/03:00pm 14.2 12.9 12.6 90 0.9 E 11 15 6 8 1022.2 1019.0 2.2
15/02:30pm 14.1 12.8 13.8 98 0.2 ESE 13 19 7 10 1022.3 1019.2 2.2
15/02:00pm 13.6 11.8 13.3 98 0.2 ESE 15 20 8 11 1022.4 1019.3 2.2
15/01:30pm 13.4 11.9 13.1 98 0.2 SE 13 19 7 10 1023.1 1019.9 2.2
15/01:00pm 13.5 11.7 13.2 98 0.2 SE 15 19 8 10 1023.3 1020.1 1.4
15/12:30pm 12.9 10.5 12.6 98 0.2 SE 17 22 9 12 1023.6 1020.5 1.0
15/12:00pm 13.0 9.7 11.7 92 0.7 SSE 20 26 11 14 1024.1 1021.0 0.2
15/11:30am 12.8 9.3 12.2 96 0.3 SSE 22 32 12 17 1024.2 1021.1 0.2
15/11:00am 14.0 11.5 12.2 89 1.0 S 17 24 9 13 1024.2 1021.1 0.0
15/10:30am 14.6 12.3 11.9 84 1.5 S 15 20 8 11 1023.9 1020.8 0.0
15/10:00am 14.6 12.5 12.3 86 1.3 SW 15 20 8 11 1024.1 1021.0 0.0

Other formats

Comma delimited format used in spreadsheet applications
http://www.bom.gov.au/fwo/IDD60801/IDD60801.94474.axf

JavaScript Object Notation format (JSON) in row-major order
http://www.bom.gov.au/fwo/IDD60801/IDD60801.94474.json

Data quality

Most of these data are generated automatically and are frequently updated. Quality checks on data are not normally performed. It is possible for incorrect values to appear. Refer to information at About Latest Weather Observations and please check the disclaimer before using these data.